Terminal Aerodrome Forecast
Issued by NWS Wakefield, VA

Home | Current Version | Previous Version | Text Only | Print | Product List | Glossary On
Versions: 1 2 3 4 5 6 7 8 9 10 11 12 13 14 15 16 17 18 19 20 21 22 23 24 25 26 27 28 29 30 31 32
381
FTUS41 KAKQ 061123
TAFECG
TAF
KECG 061123Z 0612/0712 27007KT P6SM SCT012 BKN025 OVC040
      TEMPO 0612/0614 BKN012
     FM061700 27005KT P6SM OVC025
     FM062300 VRB05KT P6SM BKN025 OVC040=

USA.gov is the U.S. government's official web portal to all federal, state and local government web resources and services.